Sumner, Michigan
Current Conditions -  °F | °C
As of 10:35 PM on Monday 20 Oct 2014 (Local Time) from KAMN Reporting Station
Overcast Overcast  
Wind Chill: 45°   Ceiling: 4800
Heat Index: 49°   Visibility: 10mi
Dew Point: 43°   Wind: 9mph
Humidity: 81%   Direction: 320°NW
Pressure: 29.91"   Gusts: NA
Location:  43.31°N, 84.82°W
Report Text: KAMN 210235Z AUTO 32008KT 10SM OVC048 10/06 A2991 RMK AO2 T00950063
Loading
Personal Weather Stations






























Interactive Weather Map
Tropical Storm Tracking
New forecast layout! Learn more

10-Day Weather Forecast

Advertisements
Track Severe Weather on mobile